createdAt,value
2022-08-21T00:00:28.998Z,16.27
2022-08-21T00:03:07.103Z,14.38
2022-08-21T00:05:40.713Z,19.43
2022-08-21T00:08:09.461Z,18.25
2022-08-21T00:10:36.586Z,19.77
2022-08-21T00:13:06.114Z,17.33
2022-08-21T00:15:36.987Z,18.93
2022-08-21T00:18:07.073Z,18.50
2022-08-21T00:20:35.972Z,19.48
2022-08-21T00:23:03.419Z,16.73
2022-08-21T00:25:31.183Z,22.90
2022-08-21T00:27:58.336Z,23.47
2022-08-21T00:30:27.552Z,20.75
2022-08-21T00:32:57.201Z,20.63
2022-08-21T00:35:33.255Z,16.58
2022-08-21T00:38:00.540Z,20.23
2022-08-21T00:40:59.609Z,20.30
2022-08-21T00:43:34.037Z,19.35
2022-08-21T00:46:03.067Z,20.17
2022-08-21T00:48:30.182Z,17.90
2022-08-21T00:51:10.898Z,19.00
2022-08-21T00:53:44.436Z,17.87
2022-08-21T00:56:17.920Z,20.42
2022-08-21T00:58:46.714Z,17.55
2022-08-21T01:01:16.867Z,14.57
2022-08-21T01:03:47.754Z,16.08
2022-08-21T01:06:17.506Z,14.95
2022-08-21T01:08:46.768Z,13.48
2022-08-21T01:11:18.202Z,18.35
2022-08-21T01:13:47.535Z,19.20
2022-08-21T01:16:21.280Z,13.18
2022-08-21T01:18:50.293Z,16.92
2022-08-21T01:21:27.915Z,17.90
2022-08-21T01:23:58.039Z,16.80
2022-08-21T01:26:34.521Z,13.32
2022-08-21T01:29:45.350Z,10.98
2022-08-21T01:32:17.104Z,15.40
2022-08-21T01:34:48.433Z,14.52
2022-08-21T01:37:17.881Z,12.10
2022-08-21T01:39:45.922Z,13.73
2022-08-21T01:42:13.736Z,14.50
2022-08-21T01:44:41.655Z,18.40
2022-08-21T01:47:13.120Z,12.37
2022-08-21T01:49:43.255Z,11.40
2022-08-21T01:52:11.209Z,11.97
2022-08-21T01:54:41.599Z,17.88
2022-08-21T01:57:09.522Z,14.90
2022-08-21T01:59:38.123Z,16.13
2022-08-21T02:02:06.061Z,10.87
2022-08-21T02:04:33.656Z,15.32
2022-08-21T02:07:02.599Z,16.17
2022-08-21T02:09:29.759Z,14.30
2022-08-21T02:11:57.599Z,14.60
2022-08-21T02:14:32.466Z,16.17
2022-08-21T02:17:05.538Z,12.80
2022-08-21T02:19:39.598Z,14.37
2022-08-21T02:22:10.311Z,17.57
2022-08-21T02:24:53.738Z,12.83
2022-08-21T02:27:27.245Z,14.27
2022-08-21T02:29:58.230Z,13.23
2022-08-21T02:32:27.028Z,17.40
2022-08-21T02:34:54.419Z,22.20
2022-08-21T02:37:23.943Z,12.73
2022-08-21T02:39:51.105Z,13.70
2022-08-21T02:42:19.109Z,13.33
2022-08-21T02:44:46.117Z,12.93
2022-08-21T02:47:14.432Z,14.63
2022-08-21T02:49:41.406Z,14.40
2022-08-21T02:52:08.407Z,13.03
2022-08-21T02:54:35.385Z,10.07
2022-08-21T02:57:02.379Z,12.13
2022-08-21T02:59:29.380Z,14.27
2022-08-21T03:01:57.038Z,10.20
2022-08-21T03:04:24.165Z,11.37
2022-08-21T03:06:51.153Z,12.40
2022-08-21T03:09:18.329Z,14.17
2022-08-21T03:11:45.392Z,10.67
2022-08-21T03:14:12.393Z,9.63
2022-08-21T03:16:39.355Z,14.77
2022-08-21T03:19:06.347Z,12.80
2022-08-21T03:21:34.148Z,14.07
2022-08-21T03:24:04.158Z,10.93
2022-08-21T03:26:32.274Z,14.07
2022-08-21T03:28:59.708Z,9.30
2022-08-21T03:31:31.671Z,11.57
2022-08-21T03:33:59.669Z,11.97
2022-08-21T03:36:26.965Z,11.50
2022-08-21T03:38:54.861Z,13.47
2022-08-21T03:41:22.015Z,10.33
2022-08-21T03:43:49.078Z,12.27
2022-08-21T03:46:16.265Z,14.30
2022-08-21T03:48:43.299Z,14.33
2022-08-21T03:51:10.398Z,11.20
2022-08-21T03:53:37.647Z,13.80
2022-08-21T03:56:06.283Z,11.67
2022-08-21T03:58:34.080Z,15.37
2022-08-21T04:01:04.106Z,12.67
2022-08-21T04:03:31.294Z,13.83
2022-08-21T04:05:58.457Z,13.50
2022-08-21T04:08:25.569Z,12.40
2022-08-21T04:10:57.439Z,12.23
2022-08-21T04:13:24.846Z,13.67
2022-08-21T04:15:52.101Z,12.67
2022-08-21T04:18:19.290Z,11.27
2022-08-21T04:20:50.844Z,13.80
2022-08-21T04:23:24.348Z,15.03
2022-08-21T04:25:56.521Z,11.33
2022-08-21T04:28:28.995Z,13.93
2022-08-21T04:30:58.306Z,14.40
2022-08-21T04:33:25.559Z,12.80
2022-08-21T04:35:53.013Z,16.03
2022-08-21T04:38:20.520Z,8.87
2022-08-21T04:40:50.337Z,18.50
2022-08-21T04:43:19.131Z,11.73
2022-08-21T04:45:50.121Z,11.83
2022-08-21T04:48:21.571Z,12.27
2022-08-21T04:51:08.592Z,13.47
2022-08-21T04:53:53.524Z,13.77
2022-08-21T04:56:35.737Z,9.93
2022-08-21T04:59:12.128Z,11.80
2022-08-21T05:01:40.862Z,13.17
2022-08-21T05:04:13.034Z,13.80
2022-08-21T05:06:45.979Z,9.90
2022-08-21T05:09:17.305Z,9.70
2022-08-21T05:11:45.074Z,10.43
2022-08-21T05:14:13.539Z,12.77
2022-08-21T05:16:41.510Z,13.53
2022-08-21T05:19:09.564Z,13.13
2022-08-21T05:21:42.830Z,6.97
2022-08-21T05:24:10.435Z,8.90
2022-08-21T05:26:45.466Z,9.17
2022-08-21T05:29:15.424Z,12.93
2022-08-21T05:31:44.835Z,10.83
2022-08-21T05:34:13.347Z,8.80
2022-08-21T05:36:43.299Z,7.90
2022-08-21T05:39:10.288Z,12.70
2022-08-21T05:41:37.470Z,12.50
2022-08-21T05:44:04.674Z,8.10
2022-08-21T05:46:37.832Z,5.23
2022-08-21T05:49:04.936Z,8.37
2022-08-21T05:51:32.301Z,9.33
2022-08-21T05:53:59.560Z,11.53
2022-08-21T05:56:26.537Z,9.87
2022-08-21T05:58:53.563Z,9.07
2022-08-21T06:01:20.914Z,6.23
2022-08-21T06:03:47.973Z,10.63
2022-08-21T06:06:14.955Z,8.90
2022-08-21T06:08:42.051Z,7.30
2022-08-21T06:11:09.867Z,8.73
2022-08-21T06:13:38.178Z,9.13
2022-08-21T06:16:16.477Z,9.00
2022-08-21T06:18:45.992Z,10.90
2022-08-21T06:21:14.489Z,7.40
2022-08-21T06:23:42.184Z,7.67
2022-08-21T06:26:13.014Z,6.27
2022-08-21T06:28:41.752Z,8.83
2022-08-21T06:31:22.095Z,10.70
2022-08-21T06:33:49.618Z,7.67
2022-08-21T06:36:17.022Z,8.33
2022-08-21T06:38:51.231Z,8.87
2022-08-21T06:41:24.268Z,6.83
2022-08-21T06:43:56.490Z,9.40
2022-08-21T06:46:30.923Z,5.53
2022-08-21T06:48:59.152Z,6.87
2022-08-21T06:51:27.448Z,8.67
2022-08-21T06:53:55.036Z,9.03
2022-08-21T06:56:22.182Z,6.87
2022-08-21T06:58:49.164Z,6.83
2022-08-21T07:01:16.214Z,7.97
2022-08-21T07:03:44.720Z,7.87
2022-08-21T07:06:12.390Z,6.97
2022-08-21T07:08:39.879Z,6.77
2022-08-21T07:11:19.833Z,6.15
2022-08-21T07:13:47.108Z,6.30
2022-08-21T07:16:14.207Z,6.97
2022-08-21T07:18:41.637Z,6.70
2022-08-21T07:21:09.851Z,7.33
2022-08-21T07:23:46.074Z,7.77
2022-08-21T07:26:15.653Z,8.93
2022-08-21T07:28:42.864Z,8.05
2022-08-21T07:31:14.614Z,6.60
2022-08-21T07:33:42.870Z,7.55
2022-08-21T07:36:10.037Z,10.52
2022-08-21T07:38:37.565Z,5.97
2022-08-21T07:41:24.325Z,7.47
2022-08-21T07:43:52.772Z,5.93
2022-08-21T07:46:20.559Z,7.38
2022-08-21T07:48:47.803Z,8.02
2022-08-21T07:51:18.795Z,5.25
2022-08-21T07:53:52.938Z,4.00
2022-08-21T07:56:21.466Z,7.13
2022-08-21T07:58:48.887Z,7.18
2022-08-21T08:01:20.805Z,3.90
2022-08-21T08:03:48.799Z,8.65
2022-08-21T08:06:17.576Z,7.40
2022-08-21T08:08:44.878Z,7.55
2022-08-21T08:11:16.181Z,5.75
2022-08-21T08:13:50.562Z,6.32
2022-08-21T08:16:19.020Z,6.38
2022-08-21T08:18:46.549Z,7.40
2022-08-21T08:21:14.440Z,5.22
2022-08-21T08:23:41.504Z,4.60
2022-08-21T08:26:08.543Z,9.95
2022-08-21T08:28:35.576Z,5.43
2022-08-21T08:31:02.840Z,5.55
2022-08-21T08:33:30.255Z,6.22
2022-08-21T08:35:57.465Z,5.55
2022-08-21T08:38:26.660Z,14.55
2022-08-21T08:41:23.812Z,10.70
2022-08-21T08:44:05.390Z,5.72
2022-08-21T08:46:57.512Z,3.15
2022-08-21T08:49:38.804Z,2.60
2022-08-21T08:52:31.706Z,5.65
2022-08-21T08:55:19.568Z,4.70
2022-08-21T08:57:50.405Z,3.17
2022-08-21T09:00:21.725Z,3.88
2022-08-21T09:02:53.967Z,4.57
2022-08-21T09:05:30.487Z,8.68
2022-08-21T09:08:18.947Z,6.53
2022-08-21T09:11:16.785Z,9.70
2022-08-21T09:13:57.556Z,9.27
2022-08-21T09:17:24.742Z,4.20
2022-08-21T09:20:45.913Z,4.93
2022-08-21T09:23:37.290Z,4.95
2022-08-21T09:26:24.944Z,4.97
2022-08-21T09:29:00.161Z,5.50
2022-08-21T09:31:33.514Z,5.13
2022-08-21T09:34:12.188Z,4.88
2022-08-21T09:36:45.215Z,3.78
2022-08-21T09:39:27.305Z,5.15
2022-08-21T09:42:05.123Z,4.18
2022-08-21T09:44:41.458Z,4.82
2022-08-21T09:47:10.245Z,7.30
2022-08-21T09:49:41.992Z,6.57
2022-08-21T09:52:25.534Z,3.50
2022-08-21T09:54:56.217Z,3.25
2022-08-21T09:57:46.438Z,5.63
2022-08-21T10:00:35.495Z,10.45
2022-08-21T10:03:22.018Z,2.72
2022-08-21T10:06:11.010Z,7.95
2022-08-21T10:08:42.332Z,4.38
2022-08-21T10:11:16.912Z,3.72
2022-08-21T10:14:14.545Z,5.15
2022-08-21T10:17:15.183Z,9.40
2022-08-21T10:20:12.688Z,6.43
2022-08-21T10:23:42.622Z,8.40
2022-08-21T10:26:46.882Z,4.43
2022-08-21T10:29:51.296Z,5.35
2022-08-21T10:32:55.777Z,7.68
2022-08-21T10:36:04.531Z,3.88
2022-08-21T10:39:26.037Z,3.30
2022-08-21T10:42:17.952Z,3.15
2022-08-21T10:45:03.761Z,5.43
2022-08-21T10:48:01.720Z,8.45
2022-08-21T10:50:40.041Z,3.53
2022-08-21T10:53:41.164Z,1.38
2022-08-21T10:56:30.134Z,3.75
2022-08-21T10:59:47.332Z,3.78
2022-08-21T11:02:34.620Z,3.13
2022-08-21T11:05:31.030Z,7.70
2022-08-21T11:08:29.928Z,4.38
2022-08-21T11:11:20.050Z,4.15
2022-08-21T11:14:10.597Z,5.45
2022-08-21T11:17:08.715Z,3.33
2022-08-21T11:20:00.010Z,7.88
2022-08-21T11:22:53.864Z,7.35
2022-08-21T11:25:33.755Z,6.57
2022-08-21T11:28:29.198Z,3.22
2022-08-21T11:31:34.324Z,2.85
2022-08-21T11:34:42.246Z,6.95
2022-08-21T11:37:57.289Z,4.75
2022-08-21T11:40:45.631Z,8.07
2022-08-21T11:44:11.381Z,3.75
2022-08-21T11:47:02.572Z,4.68
2022-08-21T11:50:29.974Z,3.13
2022-08-21T11:53:56.091Z,2.58
2022-08-21T11:56:52.369Z,2.70
2022-08-21T11:59:29.992Z,4.28
2022-08-21T12:01:57.462Z,4.60
2022-08-21T12:04:36.196Z,5.25
2022-08-21T12:07:40.713Z,4.47
2022-08-21T12:10:23.261Z,6.35
2022-08-21T12:12:50.256Z,1.85
2022-08-21T12:15:23.480Z,6.32
2022-08-21T12:18:31.496Z,3.65
2022-08-21T12:21:21.962Z,2.17
2022-08-21T12:24:14.844Z,3.17
2022-08-21T12:26:57.226Z,2.83
2022-08-21T12:29:36.922Z,5.88
2022-08-21T12:32:11.565Z,3.35
2022-08-21T12:34:56.014Z,4.35
2022-08-21T12:38:23.400Z,3.45
2022-08-21T12:41:14.089Z,1.83
2022-08-21T12:44:11.433Z,4.60
2022-08-21T12:46:57.911Z,4.60
2022-08-21T12:49:36.309Z,2.03
2022-08-21T12:52:40.634Z,2.15
2022-08-21T12:55:16.629Z,2.63
2022-08-21T12:57:43.719Z,5.25
2022-08-21T13:00:15.464Z,2.47
2022-08-21T13:02:51.823Z,0.90
2022-08-21T13:05:38.084Z,1.10
2022-08-21T13:08:10.680Z,5.13
2022-08-21T13:10:40.062Z,5.28
2022-08-21T13:13:25.652Z,1.33
2022-08-21T13:16:10.304Z,1.23
2022-08-21T13:18:57.522Z,3.70
2022-08-21T13:21:33.868Z,1.23
2022-08-21T13:24:43.562Z,2.47
2022-08-21T13:28:16.456Z,1.77
2022-08-21T13:30:54.842Z,1.98
2022-08-21T13:33:36.430Z,1.75
2022-08-21T13:36:27.636Z,3.60
2022-08-21T13:38:55.809Z,4.75
2022-08-21T13:41:32.706Z,0.60
2022-08-21T13:44:20.002Z,1.42
2022-08-21T13:46:50.782Z,1.38
2022-08-21T13:49:30.150Z,2.13
2022-08-21T13:51:57.536Z,3.15
2022-08-21T13:54:34.700Z,4.03
2022-08-21T13:57:01.863Z,2.92
2022-08-21T13:59:37.158Z,4.53
2022-08-21T14:02:19.946Z,1.63
2022-08-21T14:05:02.609Z,3.60
2022-08-21T14:07:41.164Z,3.03
2022-08-21T14:10:20.904Z,1.75
2022-08-21T14:13:02.793Z,3.00
2022-08-21T14:15:34.335Z,1.00
2022-08-21T14:18:20.637Z,3.28
2022-08-21T14:20:47.833Z,1.67
2022-08-21T14:23:28.431Z,3.97
2022-08-21T14:26:03.992Z,3.17
2022-08-21T14:28:42.590Z,4.97
2022-08-21T14:31:21.704Z,3.70
2022-08-21T14:33:49.536Z,3.83
2022-08-21T14:36:16.662Z,4.32
2022-08-21T14:38:43.931Z,1.48
2022-08-21T14:41:24.781Z,2.30
2022-08-21T14:44:05.742Z,2.95
2022-08-21T14:46:45.755Z,4.03
2022-08-21T14:49:28.799Z,1.83
2022-08-21T14:51:58.860Z,1.42
2022-08-21T14:54:32.523Z,2.67
2022-08-21T14:57:13.134Z,4.65
2022-08-21T14:59:40.657Z,5.53
2022-08-21T15:02:09.552Z,3.42
2022-08-21T15:04:36.618Z,4.10
2022-08-21T15:07:04.877Z,4.72
2022-08-21T15:09:31.879Z,5.32
2022-08-21T15:12:01.570Z,3.35
2022-08-21T15:14:34.274Z,2.20
2022-08-21T15:17:01.453Z,2.90
2022-08-21T15:19:30.289Z,2.97
2022-08-21T15:21:57.964Z,5.13
2022-08-21T15:24:25.374Z,4.25
2022-08-21T15:26:55.070Z,2.83
2022-08-21T15:29:22.977Z,4.85
2022-08-21T15:32:03.343Z,3.80
2022-08-21T15:34:31.918Z,8.15
2022-08-21T15:36:59.450Z,4.30
2022-08-21T15:39:31.201Z,3.72
2022-08-21T15:42:06.219Z,3.97
2022-08-21T15:44:42.688Z,2.75
2022-08-21T15:47:26.007Z,4.88
2022-08-21T15:50:14.151Z,1.95
2022-08-21T15:53:04.398Z,4.05
2022-08-21T15:56:15.721Z,2.05
2022-08-21T15:59:50.708Z,4.55
2022-08-21T16:02:31.335Z,3.67
2022-08-21T16:05:00.042Z,2.55
2022-08-21T16:07:27.302Z,4.63
2022-08-21T16:09:54.401Z,5.25
2022-08-21T16:12:31.896Z,3.10
2022-08-21T16:15:02.261Z,5.18
2022-08-21T16:17:34.661Z,3.63
2022-08-21T16:20:08.358Z,5.93
2022-08-21T16:22:44.089Z,2.42
2022-08-21T16:25:14.629Z,2.67
2022-08-21T16:27:47.263Z,3.60
2022-08-21T16:30:15.934Z,5.22
2022-08-21T16:32:44.578Z,3.40
2022-08-21T16:35:18.516Z,3.63
2022-08-21T16:37:48.983Z,3.72
2022-08-21T16:40:19.749Z,4.07
2022-08-21T16:43:05.999Z,7.05
2022-08-21T16:45:39.276Z,5.70
2022-08-21T16:48:09.605Z,4.75
2022-08-21T16:50:37.810Z,5.28
2022-08-21T16:53:07.034Z,4.53
2022-08-21T16:55:36.666Z,2.10
2022-08-21T16:58:15.671Z,6.03
2022-08-21T17:00:43.312Z,3.13
2022-08-21T17:03:17.537Z,3.70
2022-08-21T17:05:44.999Z,4.57
2022-08-21T17:08:12.072Z,4.97
2022-08-21T17:10:46.585Z,5.20
2022-08-21T17:13:14.016Z,4.47
2022-08-21T17:15:41.736Z,3.50
2022-08-21T17:18:15.778Z,4.47
2022-08-21T17:20:43.276Z,3.70
2022-08-21T17:23:11.498Z,4.88
2022-08-21T17:25:41.403Z,6.30
2022-08-21T17:28:11.605Z,3.35
2022-08-21T17:30:42.778Z,5.78
2022-08-21T17:33:10.143Z,4.10
2022-08-21T17:35:37.102Z,3.45
2022-08-21T17:38:04.070Z,6.55
2022-08-21T17:40:31.745Z,2.35
2022-08-21T17:43:06.806Z,4.88
2022-08-21T17:45:37.221Z,3.22
2022-08-21T17:48:04.722Z,3.00
2022-08-21T17:50:31.713Z,2.92
2022-08-21T17:52:58.793Z,5.35
2022-08-21T17:55:28.913Z,3.25
2022-08-21T17:57:57.165Z,7.25
2022-08-21T18:00:26.467Z,4.47
2022-08-21T18:03:21.380Z,3.05
2022-08-21T18:05:51.153Z,4.43
2022-08-21T18:08:18.393Z,3.50
2022-08-21T18:10:48.672Z,5.07
2022-08-21T18:13:29.063Z,3.63
2022-08-21T18:15:57.731Z,5.00
2022-08-21T18:18:26.981Z,2.30
2022-08-21T18:20:58.067Z,4.05
2022-08-21T18:23:43.604Z,4.47
2022-08-21T18:26:17.550Z,3.33
2022-08-21T18:28:44.902Z,3.17
2022-08-21T18:31:12.745Z,4.53
2022-08-21T18:33:43.683Z,2.53
2022-08-21T18:36:25.628Z,5.57
2022-08-21T18:38:52.888Z,6.25
2022-08-21T18:41:19.904Z,3.55
2022-08-21T18:43:46.943Z,5.78
2022-08-21T18:46:14.395Z,4.78
2022-08-21T18:48:43.577Z,3.33
2022-08-21T18:51:12.217Z,3.28
2022-08-21T18:53:39.373Z,4.93
2022-08-21T18:56:08.332Z,3.78
2022-08-21T18:58:44.315Z,3.88
2022-08-21T19:01:12.233Z,2.75
2022-08-21T19:03:40.070Z,2.45
2022-08-21T19:06:09.811Z,3.88
2022-08-21T19:08:56.009Z,5.75
2022-08-21T19:11:25.865Z,5.53
2022-08-21T19:13:53.890Z,3.13
2022-08-21T19:16:22.375Z,3.30
2022-08-21T19:18:50.102Z,4.65
2022-08-21T19:21:17.069Z,4.20
2022-08-21T19:23:48.167Z,4.22
2022-08-21T19:26:23.069Z,4.28
2022-08-21T19:28:59.572Z,3.08
2022-08-21T19:31:32.714Z,4.75
2022-08-21T19:34:27.623Z,7.40
2022-08-21T19:36:56.676Z,3.03
2022-08-21T19:39:25.277Z,9.93
2022-08-21T19:41:58.231Z,3.00
2022-08-21T19:44:29.025Z,3.88
2022-08-21T19:46:58.339Z,4.45
2022-08-21T19:49:33.646Z,6.88
2022-08-21T19:52:02.310Z,3.35
2022-08-21T19:54:40.262Z,3.95
2022-08-21T19:57:10.785Z,2.95
2022-08-21T19:59:39.238Z,4.30
2022-08-21T20:02:07.420Z,6.28
2022-08-21T20:04:34.469Z,4.93
2022-08-21T20:07:01.809Z,3.47
2022-08-21T20:09:28.924Z,3.38
2022-08-21T20:12:05.154Z,6.00
2022-08-21T20:14:42.850Z,5.75
2022-08-21T20:17:14.705Z,4.45
2022-08-21T20:19:45.354Z,5.05
2022-08-21T20:22:14.168Z,3.37
2022-08-21T20:24:42.174Z,6.13
2022-08-21T20:27:16.530Z,4.83
2022-08-21T20:29:43.557Z,5.90
2022-08-21T20:32:12.067Z,4.80
2022-08-21T20:34:40.961Z,5.27
2022-08-21T20:37:09.112Z,2.73
2022-08-21T20:39:36.607Z,3.47
2022-08-21T20:42:07.002Z,4.40
2022-08-21T20:44:35.836Z,3.43
2022-08-21T20:47:04.760Z,2.30
2022-08-21T20:49:47.674Z,2.63
2022-08-21T20:52:17.913Z,3.77
2022-08-21T20:55:03.753Z,4.00
2022-08-21T20:58:07.221Z,2.20
2022-08-21T21:00:41.401Z,2.53
2022-08-21T21:03:30.337Z,4.00
2022-08-21T21:06:08.473Z,2.17
2022-08-21T21:08:54.335Z,2.10
2022-08-21T21:11:39.955Z,2.37
2022-08-21T21:14:26.962Z,2.33
2022-08-21T21:17:01.981Z,1.93
2022-08-21T21:19:57.305Z,3.43
2022-08-21T21:22:34.243Z,2.27
2022-08-21T21:25:42.454Z,2.97
2022-08-21T21:28:19.438Z,2.27
2022-08-21T21:30:52.013Z,3.10
2022-08-21T21:33:25.736Z,3.13
2022-08-21T21:36:34.401Z,3.00
2022-08-21T21:39:27.677Z,5.30
2022-08-21T21:42:37.198Z,1.87
2022-08-21T21:45:31.725Z,2.40
2022-08-21T21:48:35.309Z,3.87
2022-08-21T21:51:36.596Z,2.80
2022-08-21T21:54:51.891Z,1.83
2022-08-21T21:57:58.056Z,6.40
2022-08-21T22:00:30.779Z,3.37
2022-08-21T22:03:26.694Z,2.87
2022-08-21T22:06:34.868Z,3.00
2022-08-21T22:09:22.325Z,1.77
2022-08-21T22:12:31.447Z,2.90
2022-08-21T22:14:59.122Z,3.10
2022-08-21T22:17:55.906Z,2.13
2022-08-21T22:21:05.246Z,1.50
2022-08-21T22:23:43.474Z,3.03
2022-08-21T22:26:28.061Z,2.80
2022-08-21T22:28:55.505Z,1.57
2022-08-21T22:31:31.269Z,3.33
2022-08-21T22:34:18.392Z,3.60
2022-08-21T22:37:10.272Z,0.90
2022-08-21T22:39:53.496Z,3.63
2022-08-21T22:42:27.413Z,2.73
2022-08-21T22:45:01.269Z,1.83
2022-08-21T22:47:38.119Z,3.92
2022-08-21T22:50:26.839Z,3.00
2022-08-21T22:53:08.095Z,3.40
2022-08-21T22:55:52.202Z,4.03
2022-08-21T22:58:33.831Z,4.67
2022-08-21T23:01:20.103Z,5.63
2022-08-21T23:03:54.388Z,3.40
2022-08-21T23:06:49.257Z,5.03
2022-08-21T23:09:48.197Z,1.83
2022-08-21T23:12:34.791Z,3.63
2022-08-21T23:15:17.946Z,3.13
2022-08-21T23:21:38.266Z,5.13
2022-08-21T23:24:32.456Z,1.23
2022-08-21T23:27:38.146Z,3.20
2022-08-21T23:30:42.957Z,1.87
2022-08-21T23:33:19.457Z,3.00
2022-08-21T23:36:27.918Z,2.03
2022-08-21T23:39:44.764Z,4.17
2022-08-21T23:42:49.188Z,2.57
2022-08-21T23:45:52.324Z,4.70
2022-08-21T23:49:24.342Z,5.63
2022-08-21T23:52:26.406Z,4.37
2022-08-21T23:55:43.224Z,2.23
2022-08-21T23:59:32.592Z,2.43
